Time;durP1;ratioP1;P1;durP2;ratioP2;P2;SDS_P1;SDS_P2;PMS_P1;PMS_P2;Temp;Humidity;BMP_temperature;BMP_pressure;BME280_temperature;BME280_humidity;BME280_pressure;Samples;Min_cycle;Max_cycle;Signal;HPM_P1;HPM_P2
2021/12/13 00:00:28;;;;;;;102.70;35.77;;;0.40;99.90;;;;;;4971192;28;20240;-67
2021/12/13 00:03:05;;;;;;;107.97;35.50;;;0.40;99.90;;;;;;4972524;28;20661;-67
2021/12/13 00:05:37;;;;;;;104.17;34.23;;;0.40;99.90;;;;;;4968088;28;20530;-68
2021/12/13 00:08:07;;;;;;;97.50;35.93;;;0.50;99.90;;;;;;4971807;28;20232;-68
2021/12/13 00:10:38;;;;;;;110.80;36.33;;;0.50;99.90;;;;;;4971790;28;20222;-67
2021/12/13 00:13:11;;;;;;;109.40;37.27;;;0.50;99.90;;;;;;4971559;28;20304;-66
2021/12/13 00:15:45;;;;;;;104.17;34.00;;;0.50;99.90;;;;;;4970788;28;20769;-67
2021/12/13 00:18:21;;;;;;;104.17;34.33;;;0.50;99.90;;;;;;4972248;28;20208;-67
2021/12/13 00:20:54;;;;;;;109.07;34.00;;;0.50;99.90;;;;;;4972444;28;20236;-67
2021/12/13 00:23:25;;;;;;;109.97;35.83;;;0.50;99.90;;;;;;4971815;28;20233;-66
2021/12/13 00:25:55;;;;;;;111.07;35.10;;;0.50;99.90;;;;;;4970741;28;20205;-66
2021/12/13 00:28:24;;;;;;;101.43;34.77;;;0.50;99.90;;;;;;4971813;28;20307;-67
2021/12/13 00:31:04;;;;;;;93.07;33.30;;;0.50;99.90;;;;;;4971988;28;20336;-66
2021/12/13 00:33:40;;;;;;;85.57;31.03;;;0.50;99.90;;;;;;4966335;28;20562;-66
2021/12/13 00:36:12;;;;;;;82.33;32.07;;;0.50;99.90;;;;;;4971209;28;20338;-66
2021/12/13 00:38:45;;;;;;;98.63;31.30;;;0.50;99.90;;;;;;4972102;28;20288;-67
2021/12/13 00:41:17;;;;;;;85.27;29.57;;;0.60;99.90;;;;;;4971886;28;20291;-66
2021/12/13 00:43:50;;;;;;;75.97;29.77;;;0.60;99.90;;;;;;4970713;28;20299;-67
2021/12/13 00:46:19;;;;;;;70.53;28.57;;;0.60;99.90;;;;;;4971516;28;20287;-67
2021/12/13 00:48:53;;;;;;;75.07;26.93;;;0.60;99.90;;;;;;4971906;28;20620;-67
2021/12/13 00:51:25;;;;;;;73.40;28.20;;;0.60;99.90;;;;;;4988688;28;20543;-67
2021/12/13 00:53:54;;;;;;;71.30;28.77;;;0.50;99.90;;;;;;4982335;28;20221;-67
2021/12/13 00:56:58;;;;;;;77.50;28.27;;;0.40;99.90;;;;;;4979803;28;20339;-67
2021/12/13 00:59:28;;;;;;;82.20;30.27;;;0.40;99.90;;;;;;4974383;28;20318;-67
2021/12/13 01:02:07;;;;;;;82.53;29.50;;;0.40;99.90;;;;;;4964811;28;20263;-67
2021/12/13 01:04:56;;;;;;;74.83;28.87;;;0.40;99.90;;;;;;4986862;28;20239;-67
2021/12/13 01:07:58;;;;;;;78.97;27.70;;;0.50;99.90;;;;;;4991248;28;20699;-67
2021/12/13 01:11:09;;;;;;;82.47;28.07;;;0.50;99.90;;;;;;4975910;28;20286;-67
2021/12/13 01:13:45;;;;;;;76.10;27.63;;;0.40;99.90;;;;;;4990338;28;20662;-67
2021/12/13 01:16:22;;;;;;;83.30;28.53;;;0.50;99.90;;;;;;4982936;28;20286;-66
2021/12/13 01:19:03;;;;;;;83.07;29.10;;;0.50;99.90;;;;;;4990333;28;20239;-66
2021/12/13 01:21:41;;;;;;;73.13;28.60;;;0.60;99.90;;;;;;4982462;28;20208;-66
2021/12/13 01:24:20;;;;;;;69.70;26.33;;;0.50;99.90;;;;;;4959457;28;20259;-66
2021/12/13 01:26:53;;;;;;;78.97;28.93;;;0.50;99.90;;;;;;4981320;28;20724;-66
2021/12/13 01:29:23;;;;;;;73.13;27.70;;;0.50;99.90;;;;;;4990763;28;20701;-67
2021/12/13 01:31:53;;;;;;;83.43;27.53;;;0.50;99.90;;;;;;4990446;28;20248;-65
2021/12/13 01:34:22;;;;;;;77.87;26.57;;;0.50;99.90;;;;;;4975496;28;20736;-67
2021/12/13 01:37:01;;;;;;;75.03;29.67;;;0.50;99.90;;;;;;4984692;28;20294;-66
2021/12/13 01:39:32;;;;;;;73.23;27.30;;;0.50;99.90;;;;;;4980782;28;20204;-67
2021/12/13 01:42:02;;;;;;;72.10;26.87;;;0.50;99.90;;;;;;4985234;28;20586;-67
2021/12/13 01:44:32;;;;;;;83.27;28.00;;;0.50;99.90;;;;;;4981375;28;20232;-66
2021/12/13 01:47:01;;;;;;;68.27;26.00;;;0.50;99.90;;;;;;4970822;28;20239;-67
2021/12/13 01:49:32;;;;;;;77.93;28.53;;;0.50;99.90;;;;;;4972002;28;20272;-66
2021/12/13 01:52:01;;;;;;;64.37;25.83;;;0.50;99.90;;;;;;4990765;28;20708;-66
2021/12/13 01:54:29;;;;;;;74.17;25.97;;;0.50;99.90;;;;;;4979465;28;20616;-66
2021/12/13 01:57:10;;;;;;;64.13;25.63;;;0.40;99.90;;;;;;4970203;28;20684;-66
2021/12/13 01:59:50;;;;;;;55.20;22.33;;;0.40;99.90;;;;;;4993961;28;20236;-67
2021/12/13 02:02:24;;;;;;;56.80;21.27;;;0.50;99.90;;;;;;4986678;28;20255;-66
2021/12/13 02:05:09;;;;;;;50.47;19.90;;;0.50;99.90;;;;;;4974586;28;21459;-66
2021/12/13 02:07:44;;;;;;;55.53;21.13;;;0.40;99.90;;;;;;4984790;28;20294;-66
2021/12/13 02:10:15;;;;;;;65.77;22.47;;;0.40;99.90;;;;;;4980073;28;20200;-66
2021/12/13 02:12:44;;;;;;;53.23;21.40;;;0.40;99.90;;;;;;4993596;28;20224;-65
2021/12/13 02:17:59;;;;;;;58.57;22.43;;;0.40;99.90;;;;;;4993990;28;20203;-66
2021/12/13 02:20:31;;;;;;;51.00;21.47;;;0.40;99.90;;;;;;4993658;28;20298;-66
2021/12/13 02:23:00;;;;;;;61.30;20.60;;;0.40;99.90;;;;;;4990044;28;20631;-66
2021/12/13 02:25:31;;;;;;;46.47;18.53;;;0.50;99.90;;;;;;4986446;28;20208;-67
2021/12/13 02:28:02;;;;;;;51.83;21.07;;;0.50;99.90;;;;;;4982765;28;20303;-67
2021/12/13 02:30:35;;;;;;;58.60;22.73;;;0.50;99.90;;;;;;4973943;28;20212;-66
2021/12/13 02:33:05;;;;;;;54.20;21.13;;;0.50;99.90;;;;;;4980916;28;20255;-66
2021/12/13 02:35:36;;;;;;;58.93;20.77;;;0.60;99.90;;;;;;4983740;28;20630;-66
2021/12/13 02:38:07;;;;;;;45.93;19.43;;;0.60;99.90;;;;;;4994561;28;20314;-67
2021/12/13 02:40:35;;;;;;;50.43;20.33;;;0.60;99.90;;;;;;4994906;28;20255;-67
2021/12/13 02:43:02;;;;;;;54.23;19.83;;;0.60;99.90;;;;;;4987982;28;20201;-66
2021/12/13 02:45:42;;;;;;;41.77;16.63;;;0.60;99.90;;;;;;4979285;28;20675;-67
2021/12/13 02:48:13;;;;;;;47.20;17.50;;;0.60;99.90;;;;;;4978625;28;20208;-66
2021/12/13 02:50:44;;;;;;;46.63;18.00;;;0.60;99.90;;;;;;4985582;28;20295;-66
2021/12/13 02:53:16;;;;;;;49.93;19.37;;;0.60;99.90;;;;;;4981537;28;20308;-66
2021/12/13 02:55:44;;;;;;;45.83;17.67;;;0.60;99.90;;;;;;4970191;28;20290;-67
2021/12/13 02:58:15;;;;;;;50.77;19.43;;;0.60;99.90;;;;;;4989020;28;20320;-65
2021/12/13 03:00:48;;;;;;;50.53;19.67;;;0.60;99.90;;;;;;4992520;28;20243;-67
2021/12/13 03:03:18;;;;;;;54.20;19.03;;;0.60;99.90;;;;;;4988129;28;20232;-65
2021/12/13 03:05:48;;;;;;;52.63;19.53;;;0.60;99.90;;;;;;4982652;28;20697;-66
2021/12/13 03:08:22;;;;;;;49.33;20.80;;;0.70;99.90;;;;;;4989845;28;20294;-66
2021/12/13 03:10:57;;;;;;;46.97;17.83;;;0.60;99.90;;;;;;4993399;28;20702;-66
2021/12/13 03:13:24;;;;;;;55.20;19.13;;;0.60;99.90;;;;;;4979221;28;20251;-66
2021/12/13 03:16:00;;;;;;;45.87;18.87;;;0.60;99.90;;;;;;4979721;28;20211;-66
2021/12/13 03:18:38;;;;;;;47.70;19.77;;;0.60;99.90;;;;;;4989634;28;20675;-67
2021/12/13 03:21:29;;;;;;;47.50;19.23;;;0.60;99.90;;;;;;4993087;28;20287;-67
2021/12/13 03:24:19;;;;;;;44.83;17.00;;;0.50;99.90;;;;;;4978986;28;20642;-66
2021/12/13 03:27:02;;;;;;;55.80;19.97;;;0.50;99.90;;;;;;4989914;28;20661;-66
2021/12/13 03:29:42;;;;;;;50.17;19.90;;;0.50;99.90;;;;;;4962464;28;20548;-67
2021/12/13 03:32:12;;;;;;;49.80;19.83;;;0.50;99.90;;;;;;4990389;28;20680;-66
2021/12/13 03:34:42;;;;;;;48.83;20.40;;;0.50;99.90;;;;;;4978445;28;20590;-66
2021/12/13 03:37:13;;;;;;;50.83;18.87;;;0.50;99.90;;;;;;4988114;28;20639;-66
2021/12/13 03:39:44;;;;;;;45.97;19.20;;;0.50;99.90;;;;;;4983727;28;20295;-66
2021/12/13 03:42:15;;;;;;;48.70;19.87;;;0.50;99.90;;;;;;4988421;28;20327;-67
2021/12/13 03:44:46;;;;;;;44.50;19.03;;;0.50;99.90;;;;;;4975911;28;20299;-67
2021/12/13 03:47:19;;;;;;;49.43;20.27;;;0.50;99.90;;;;;;4974310;28;20216;-66
2021/12/13 03:49:50;;;;;;;50.67;20.63;;;0.50;99.90;;;;;;4978521;28;20712;-65
2021/12/13 03:52:20;;;;;;;48.90;19.83;;;0.50;99.90;;;;;;4992197;28;20236;-66
2021/12/13 03:54:52;;;;;;;47.73;20.50;;;0.50;99.90;;;;;;4972480;28;20225;-67
2021/12/13 03:57:20;;;;;;;58.97;20.93;;;0.50;99.90;;;;;;4983975;28;20291;-66
2021/12/13 03:59:48;;;;;;;49.83;20.50;;;0.50;99.90;;;;;;4988673;28;20326;-65
2021/12/13 04:02:19;;;;;;;50.03;20.83;;;0.50;99.90;;;;;;4981097;28;20315;-66
2021/12/13 04:04:49;;;;;;;53.47;21.03;;;0.50;99.90;;;;;;4985245;28;20212;-66
2021/12/13 04:07:20;;;;;;;52.90;20.60;;;0.50;99.90;;;;;;4980556;28;20214;-66
2021/12/13 04:09:51;;;;;;;56.67;21.07;;;0.50;99.90;;;;;;4986622;28;20277;-66
2021/12/13 04:12:23;;;;;;;60.67;20.47;;;0.60;99.90;;;;;;4983991;28;20709;-66
2021/12/13 04:14:58;;;;;;;50.83;20.53;;;0.60;99.90;;;;;;4979806;28;20236;-66
2021/12/13 04:17:37;;;;;;;47.97;20.57;;;0.60;99.90;;;;;;4991746;28;20199;-66
2021/12/13 04:20:08;;;;;;;51.77;21.30;;;0.60;99.90;;;;;;4991587;28;20651;-66
2021/12/13 04:22:39;;;;;;;49.20;20.20;;;0.70;99.90;;;;;;4983198;28;20684;-66
2021/12/13 04:25:11;;;;;;;60.30;22.33;;;0.70;99.90;;;;;;4987062;28;20239;-66
2021/12/13 04:27:42;;;;;;;67.23;24.33;;;0.70;99.90;;;;;;4988740;28;20235;-66
2021/12/13 04:30:17;;;;;;;61.10;23.00;;;0.90;99.90;;;;;;4991347;28;20732;-66
2021/12/13 04:32:47;;;;;;;65.33;23.33;;;0.80;99.90;;;;;;4982969;28;20258;-66
2021/12/13 04:35:17;;;;;;;56.27;22.83;;;0.80;99.90;;;;;;4977795;28;20315;-66
2021/12/13 04:37:49;;;;;;;66.37;22.70;;;0.80;99.90;;;;;;4991649;28;20331;-65
2021/12/13 04:40:22;;;;;;;64.17;23.63;;;0.60;99.90;;;;;;4991631;28;20208;-66
2021/12/13 04:42:50;;;;;;;58.80;22.30;;;0.50;99.90;;;;;;4985409;28;20701;-67
2021/12/13 04:45:21;;;;;;;64.10;23.40;;;0.40;99.90;;;;;;4972046;28;20673;-67
2021/12/13 04:47:57;;;;;;;57.07;21.53;;;0.30;99.90;;;;;;4962127;28;20212;-66
2021/12/13 04:50:27;;;;;;;65.87;22.70;;;0.30;99.90;;;;;;4980574;28;20625;-66
2021/12/13 04:52:56;;;;;;;58.13;22.33;;;0.30;99.90;;;;;;4979069;28;20304;-66
2021/12/13 04:55:29;;;;;;;64.43;21.97;;;0.40;99.90;;;;;;4980091;28;20219;-67
2021/12/13 04:58:00;;;;;;;64.77;24.13;;;0.40;99.90;;;;;;4979285;28;20236;-66
2021/12/13 05:00:31;;;;;;;65.40;21.10;;;0.30;99.90;;;;;;4991074;28;20622;-67
2021/12/13 05:03:02;;;;;;;67.50;22.07;;;0.40;99.90;;;;;;4980173;28;20292;-66
2021/12/13 05:05:31;;;;;;;66.07;22.80;;;0.40;99.90;;;;;;4990841;28;20232;-66
2021/12/13 05:07:59;;;;;;;51.67;21.33;;;0.40;99.90;;;;;;4979349;28;20299;-66
2021/12/13 05:10:30;;;;;;;62.80;22.17;;;0.40;99.90;;;;;;4990639;28;20292;-66
2021/12/13 05:13:03;;;;;;;60.37;23.40;;;0.50;99.90;;;;;;4976526;28;20216;-66
2021/12/13 05:15:31;;;;;;;58.87;21.80;;;0.40;99.90;;;;;;4960360;28;20695;-66
2021/12/13 05:18:00;;;;;;;63.50;22.93;;;0.50;99.90;;;;;;4973444;28;20745;-66
2021/12/13 05:20:33;;;;;;;56.70;22.87;;;0.50;99.90;;;;;;4984927;28;20292;-66
2021/12/13 05:23:04;;;;;;;62.47;22.97;;;0.50;99.90;;;;;;4970976;28;20300;-67
2021/12/13 05:25:35;;;;;;;67.40;23.00;;;0.50;99.90;;;;;;4975823;28;20647;-65
2021/12/13 05:28:07;;;;;;;71.17;24.10;;;0.50;99.90;;;;;;4981539;28;20231;-67
2021/12/13 05:30:37;;;;;;;64.17;21.83;;;0.50;99.90;;;;;;4993293;28;20294;-66
2021/12/13 05:33:09;;;;;;;68.73;23.53;;;0.50;99.90;;;;;;4990748;28;20680;-66
2021/12/13 05:35:43;;;;;;;62.07;22.63;;;0.50;99.90;;;;;;4986111;28;20216;-66
2021/12/13 05:38:22;;;;;;;71.83;24.33;;;0.50;99.90;;;;;;4982228;28;20228;-66
2021/12/13 05:40:51;;;;;;;65.07;22.87;;;0.40;99.90;;;;;;4988725;28;20206;-66
2021/12/13 05:43:24;;;;;;;69.77;24.00;;;0.50;99.90;;;;;;4974966;28;20859;-67
2021/12/13 05:45:54;;;;;;;66.80;22.90;;;0.50;99.90;;;;;;4974759;28;20556;-66
2021/12/13 05:48:24;;;;;;;61.70;22.40;;;0.60;99.90;;;;;;4975262;28;20209;-66
2021/12/13 05:50:55;;;;;;;65.67;22.23;;;0.60;99.90;;;;;;4987599;28;20455;-66
2021/12/13 05:53:24;;;;;;;67.60;23.93;;;0.60;99.90;;;;;;4976665;28;20294;-66
2021/12/13 05:56:02;;;;;;;60.93;22.20;;;0.60;99.90;;;;;;4993788;28;20234;-66
2021/12/13 05:58:40;;;;;;;58.63;22.30;;;0.60;99.90;;;;;;4987421;28;20684;-66
2021/12/13 06:01:12;;;;;;;61.33;23.80;;;0.70;99.90;;;;;;4980872;28;20299;-66
2021/12/13 06:03:43;;;;;;;63.27;23.63;;;0.70;99.90;;;;;;4994186;28;20219;-66
2021/12/13 06:06:13;;;;;;;63.20;22.97;;;0.80;99.90;;;;;;4980739;28;20641;-66
2021/12/13 06:08:45;;;;;;;66.97;23.47;;;0.70;99.90;;;;;;4982317;28;20299;-66
2021/12/13 06:11:16;;;;;;;70.27;23.27;;;0.70;99.90;;;;;;4980907;28;20329;-66
2021/12/13 06:14:17;;;;;;;68.93;24.67;;;0.70;99.90;;;;;;4979899;28;20655;-66
2021/12/13 06:16:55;;;;;;;64.97;23.77;;;0.70;99.90;;;;;;4980244;28;20777;-66
2021/12/13 06:19:30;;;;;;;67.87;23.53;;;0.70;99.90;;;;;;4983930;28;20246;-66
2021/12/13 06:22:10;;;;;;;68.47;24.97;;;0.70;99.90;;;;;;4976281;28;20196;-66
2021/12/13 06:24:39;;;;;;;67.27;22.63;;;0.80;99.90;;;;;;4984710;28;20332;-66
2021/12/13 06:27:18;;;;;;;62.03;24.30;;;0.80;99.90;;;;;;4992353;28;20315;-66
2021/12/13 06:29:53;;;;;;;61.47;22.90;;;0.90;99.90;;;;;;4983208;28;20226;-66
2021/12/13 06:32:26;;;;;;;63.20;24.40;;;0.90;99.90;;;;;;4978573;28;20202;-66
2021/12/13 06:34:53;;;;;;;58.20;21.83;;;0.90;99.90;;;;;;4987162;28;20707;-66
2021/12/13 06:37:30;;;;;;;62.23;23.90;;;1.00;99.90;;;;;;4986642;28;20299;-66
2021/12/13 06:40:26;;;;;;;67.50;22.20;;;1.00;99.90;;;;;;4984914;28;20231;-67
2021/12/13 06:42:54;;;;;;;62.40;23.17;;;1.00;99.90;;;;;;4980799;28;20679;-68
2021/12/13 06:45:27;;;;;;;62.77;24.47;;;0.90;99.90;;;;;;4978046;28;20260;-68
2021/12/13 06:47:57;;;;;;;69.07;23.20;;;0.90;99.90;;;;;;4967468;28;20295;-66
2021/12/13 06:50:27;;;;;;;69.90;25.63;;;0.80;99.90;;;;;;4982745;28;20204;-66
2021/12/13 06:53:15;;;;;;;59.97;23.00;;;0.80;99.90;;;;;;4986698;28;20222;-68
2021/12/13 06:55:42;;;;;;;65.97;25.40;;;0.80;99.90;;;;;;4980528;28;20228;-67
2021/12/13 06:58:18;;;;;;;70.43;24.53;;;0.80;99.90;;;;;;4971883;28;20327;-67
2021/12/13 07:00:46;;;;;;;68.37;25.13;;;0.80;99.90;;;;;;4970018;28;20680;-69
2021/12/13 07:03:19;;;;;;;62.33;23.00;;;0.80;99.90;;;;;;4972053;28;20219;-69
2021/12/13 07:05:49;;;;;;;64.53;23.40;;;0.80;99.90;;;;;;4971056;28;20728;-68
2021/12/13 07:08:21;;;;;;;63.73;24.67;;;0.70;99.90;;;;;;4972021;28;20208;-69
2021/12/13 07:10:59;;;;;;;60.87;23.93;;;0.60;99.90;;;;;;4972847;28;20235;-70
2021/12/13 07:13:32;;;;;;;55.43;22.53;;;0.60;99.90;;;;;;4973513;28;20215;-68
2021/12/13 07:16:02;;;;;;;68.07;25.03;;;0.70;99.90;;;;;;4971956;28;20219;-68
2021/12/13 07:18:40;;;;;;;62.00;23.53;;;0.60;99.90;;;;;;4972590;28;20216;-67
2021/12/13 07:21:10;;;;;;;68.50;23.03;;;0.50;99.90;;;;;;4971830;28;20241;-68
2021/12/13 07:23:55;;;;;;;66.07;24.07;;;0.50;99.90;;;;;;4973316;28;20300;-68
2021/12/13 07:26:38;;;;;;;70.13;23.60;;;0.50;99.90;;;;;;4974194;28;20204;-68
2021/12/13 07:29:10;;;;;;;62.67;25.83;;;0.50;99.90;;;;;;4965445;28;20232;-68
2021/12/13 07:31:39;;;;;;;78.57;25.20;;;0.50;99.90;;;;;;4971576;28;20290;-68
2021/12/13 07:34:14;;;;;;;70.10;23.57;;;0.50;99.90;;;;;;4971713;28;20209;-68
2021/12/13 07:36:41;;;;;;;77.90;25.93;;;0.40;99.90;;;;;;4970488;28;20728;-68
2021/12/13 07:39:14;;;;;;;70.43;25.33;;;0.40;99.90;;;;;;4971941;28;20211;-67
2021/12/13 07:41:45;;;;;;;76.13;25.97;;;0.40;99.90;;;;;;4972596;28;20632;-68
2021/12/13 07:44:41;;;;;;;77.57;25.93;;;0.40;99.90;;;;;;4963788;28;20288;-66
2021/12/13 07:47:12;;;;;;;76.83;25.83;;;0.50;99.90;;;;;;4966640;28;20208;-68
2021/12/13 07:49:42;;;;;;;74.20;26.37;;;0.50;99.90;;;;;;4974680;28;20196;-68
2021/12/13 07:52:11;;;;;;;88.17;26.87;;;0.50;99.90;;;;;;4968554;28;20201;-67
2021/12/13 07:54:41;;;;;;;88.37;28.37;;;0.40;99.90;;;;;;4972181;28;20667;-67
2021/12/13 07:57:19;;;;;;;75.57;25.13;;;0.40;99.90;;;;;;4976932;28;20243;-69
2021/12/13 07:59:49;;;;;;;91.70;28.47;;;0.40;99.90;;;;;;4969130;28;20307;-68
2021/12/13 08:02:25;;;;;;;87.70;26.37;;;0.30;99.90;;;;;;4971075;28;20311;-68
2021/12/13 08:04:56;;;;;;;76.57;25.17;;;0.30;99.90;;;;;;4973390;28;20564;-70
2021/12/13 08:07:27;;;;;;;81.30;27.10;;;0.30;99.90;;;;;;4971917;28;20289;-67
2021/12/13 08:09:58;;;;;;;84.43;28.37;;;0.30;99.90;;;;;;4972234;28;20625;-68
2021/12/13 08:12:28;;;;;;;74.63;27.10;;;0.20;99.90;;;;;;4970728;28;20243;-68
2021/12/13 08:15:10;;;;;;;87.13;25.70;;;0.20;99.90;;;;;;4971688;28;20904;-67
2021/12/13 08:17:44;;;;;;;77.17;25.17;;;0.20;99.90;;;;;;4971222;28;20208;-67
2021/12/13 08:20:18;;;;;;;78.50;25.17;;;0.20;99.90;;;;;;4972055;28;20208;-68
2021/12/13 08:22:47;;;;;;;70.10;22.87;;;0.10;99.90;;;;;;4971339;28;20291;-68
2021/12/13 08:25:17;;;;;;;67.23;25.67;;;0.10;99.90;;;;;;4972413;28;20715;-68
2021/12/13 08:27:52;;;;;;;73.17;23.97;;;0.10;99.90;;;;;;4971778;28;20212;-69
2021/12/13 08:30:25;;;;;;;79.97;22.90;;;0.00;99.90;;;;;;4973438;28;20268;-68
2021/12/13 08:33:04;;;;;;;74.13;25.37;;;0.00;99.90;;;;;;4971804;28;20311;-68
2021/12/13 08:35:47;;;;;;;78.67;24.43;;;0.00;99.90;;;;;;4972377;28;20872;-68
2021/12/13 08:38:26;;;;;;;77.33;23.27;;;-0.10;99.90;;;;;;4971731;28;20215;-69
2021/12/13 08:40:54;;;;;;;76.27;25.00;;;-0.10;99.90;;;;;;4971207;28;20494;-67
2021/12/13 08:43:38;;;;;;;66.63;24.30;;;-0.10;99.90;;;;;;4972170;28;20331;-68
2021/12/13 08:46:07;;;;;;;66.83;24.23;;;-0.20;99.90;;;;;;4971694;28;20305;-68
2021/12/13 08:48:45;;;;;;;79.27;25.50;;;-0.20;99.90;;;;;;4971164;28;20231;-67
2021/12/13 08:51:20;;;;;;;70.57;24.03;;;-0.20;99.90;;;;;;4982807;28;20275;-67
2021/12/13 08:53:57;;;;;;;70.33;25.43;;;-0.20;99.90;;;;;;4968306;28;20210;-66
2021/12/13 08:56:25;;;;;;;66.40;23.33;;;-0.20;99.90;;;;;;4976046;28;20314;-67
2021/12/13 08:58:53;;;;;;;71.13;24.03;;;-0.10;99.90;;;;;;4972210;28;20267;-68
2021/12/13 09:01:22;;;;;;;69.97;24.73;;;-0.10;99.90;;;;;;4970325;28;20240;-67
2021/12/13 09:03:52;;;;;;;74.20;25.73;;;-0.10;99.90;;;;;;4975867;28;20586;-66
2021/12/13 09:06:30;;;;;;;70.20;24.80;;;0.00;99.90;;;;;;4976283;28;20657;-66
2021/12/13 09:09:04;;;;;;;69.60;23.47;;;0.00;99.90;;;;;;4968412;28;20300;-66
2021/12/13 09:11:33;;;;;;;77.37;24.77;;;0.00;99.90;;;;;;4970504;28;20575;-67
2021/12/13 09:14:06;;;;;;;66.00;23.50;;;0.00;99.90;;;;;;4971028;28;20204;-66
2021/12/13 09:16:45;;;;;;;78.60;24.67;;;0.00;99.90;;;;;;4970504;28;20291;-67
2021/12/13 09:19:19;;;;;;;66.70;24.90;;;0.10;99.90;;;;;;4971087;28;20278;-67
2021/12/13 09:21:57;;;;;;;71.00;23.30;;;0.10;99.90;;;;;;4970939;28;20224;-66
2021/12/13 09:24:33;;;;;;;77.97;23.90;;;0.20;99.90;;;;;;4971171;28;20204;-66
2021/12/13 09:27:35;;;;;;;63.23;21.97;;;0.10;99.90;;;;;;4970907;28;20242;-67
2021/12/13 09:30:30;;;;;;;70.63;24.37;;;0.20;99.90;;;;;;4961885;28;20208;-67
2021/12/13 09:33:01;;;;;;;74.50;25.37;;;0.10;99.90;;;;;;4963574;28;20273;-67
2021/12/13 09:35:38;;;;;;;73.73;22.67;;;0.20;99.90;;;;;;4969832;28;20223;-68
2021/12/13 09:38:27;;;;;;;77.30;25.90;;;0.20;99.90;;;;;;4964787;28;20204;-68
2021/12/13 09:41:01;;;;;;;75.67;24.17;;;0.20;99.90;;;;;;4969012;28;20209;-69
2021/12/13 09:43:41;;;;;;;65.23;23.70;;;0.10;99.90;;;;;;4965813;28;20650;-69
2021/12/13 09:46:12;;;;;;;71.23;24.60;;;0.20;99.90;;;;;;4970473;28;20197;-68
2021/12/13 09:48:44;;;;;;;69.90;23.83;;;0.20;99.90;;;;;;4968374;28;20296;-69
2021/12/13 09:51:17;;;;;;;64.87;23.53;;;0.20;99.90;;;;;;4971964;28;20197;-67
2021/12/13 09:53:48;;;;;;;69.40;24.93;;;0.30;99.90;;;;;;4969380;28;20255;-67
2021/12/13 09:56:18;;;;;;;64.30;24.53;;;0.30;99.90;;;;;;4978419;28;20315;-69
2021/12/13 09:58:49;;;;;;;66.57;24.13;;;0.30;99.90;;;;;;4978168;28;20267;-68
2021/12/13 10:01:23;;;;;;;68.47;23.27;;;0.30;99.90;;;;;;4976482;28;20299;-68
2021/12/13 10:03:56;;;;;;;73.93;24.30;;;0.40;99.90;;;;;;4969652;28;20252;-67
2021/12/13 10:06:26;;;;;;;57.90;24.90;;;0.40;99.90;;;;;;4970432;28;20388;-68
2021/12/13 10:08:58;;;;;;;62.27;24.20;;;0.40;99.90;;;;;;4969392;28;20283;-67
2021/12/13 10:11:28;;;;;;;74.03;26.00;;;0.40;99.90;;;;;;4970324;28;20205;-67
2021/12/13 10:13:55;;;;;;;60.20;23.57;;;0.40;99.90;;;;;;4965094;28;20271;-67
2021/12/13 10:16:26;;;;;;;58.57;24.77;;;0.50;99.90;;;;;;4979793;28;20327;-68
2021/12/13 10:18:55;;;;;;;65.17;24.73;;;0.50;99.90;;;;;;4971915;28;20631;-68
2021/12/13 10:21:26;;;;;;;65.63;24.40;;;0.50;99.90;;;;;;4986321;28;20242;-69
2021/12/13 10:23:56;;;;;;;73.00;24.57;;;0.50;99.90;;;;;;4976502;28;20204;-68
2021/12/13 10:26:25;;;;;;;74.77;25.70;;;0.50;99.90;;;;;;4973768;28;20701;-68
2021/12/13 10:28:55;;;;;;;66.97;25.53;;;0.60;99.90;;;;;;4974134;28;20299;-67
2021/12/13 10:31:28;;;;;;;66.47;27.27;;;0.60;99.90;;;;;;4979637;28;20215;-67
2021/12/13 10:33:58;;;;;;;65.67;24.87;;;0.60;99.90;;;;;;4976936;28;20196;-67
2021/12/13 10:36:28;;;;;;;68.80;25.23;;;0.60;99.90;;;;;;4981283;28;20721;-67
2021/12/13 10:38:58;;;;;;;67.13;25.63;;;0.70;99.90;;;;;;4985275;28;20287;-68
2021/12/13 10:41:29;;;;;;;64.87;24.70;;;0.70;99.90;;;;;;4972407;28;20283;-69
2021/12/13 10:44:00;;;;;;;67.67;24.90;;;0.80;99.90;;;;;;4969269;28;20797;-67
2021/12/13 10:46:31;;;;;;;68.47;26.53;;;0.90;99.90;;;;;;4972659;28;20211;-67
2021/12/13 10:49:04;;;;;;;73.20;26.63;;;0.80;99.90;;;;;;4970177;28;20211;-68
2021/12/13 10:51:36;;;;;;;79.53;27.30;;;0.80;99.90;;;;;;4974382;28;20243;-67
2021/12/13 10:54:10;;;;;;;63.87;24.93;;;0.80;99.90;;;;;;4970467;28;20315;-68
2021/12/13 10:56:40;;;;;;;76.30;26.33;;;0.80;99.90;;;;;;4976292;28;20307;-67
2021/12/13 10:59:10;;;;;;;79.03;27.23;;;0.80;99.90;;;;;;4973441;28;20248;-67
2021/12/13 11:01:41;;;;;;;69.10;27.77;;;0.90;99.90;;;;;;4983251;28;20220;-67
2021/12/13 11:04:13;;;;;;;79.40;27.07;;;0.90;99.90;;;;;;4969351;28;20303;-67
2021/12/13 11:06:42;;;;;;;73.53;25.43;;;0.90;99.90;;;;;;4970110;28;20204;-67
2021/12/13 11:09:13;;;;;;;80.63;27.50;;;1.00;99.90;;;;;;4969335;28;20200;-68
2021/12/13 11:11:43;;;;;;;71.57;25.97;;;1.00;99.90;;;;;;4970998;28;20201;-67
2021/12/13 11:14:17;;;;;;;68.83;27.43;;;1.10;99.90;;;;;;4971528;28;20645;-66
2021/12/13 11:16:48;;;;;;;74.90;27.20;;;1.10;99.90;;;;;;4969887;28;20264;-67
2021/12/13 11:19:22;;;;;;;75.63;27.30;;;1.10;99.90;;;;;;4968666;28;20204;-69
2021/12/13 11:21:53;;;;;;;69.10;26.33;;;1.20;99.90;;;;;;4960943;28;20673;-67
2021/12/13 11:24:23;;;;;;;74.07;27.33;;;1.20;99.90;;;;;;4960404;28;20216;-67
2021/12/13 11:26:53;;;;;;;83.93;27.23;;;1.30;99.90;;;;;;4963725;28;20573;-68
2021/12/13 11:29:20;;;;;;;66.47;27.77;;;1.30;99.90;;;;;;4961416;28;20333;-67
2021/12/13 11:32:44;;;;;;;81.93;28.53;;;1.40;99.90;;;;;;4957508;28;20300;-68
2021/12/13 11:35:53;;;;;;;75.60;26.30;;;1.40;99.90;;;;;;4958695;28;20713;-67
2021/12/13 11:38:44;;;;;;;77.53;28.03;;;1.50;99.90;;;;;;4948702;28;20265;-67
2021/12/13 11:41:49;;;;;;;71.30;27.57;;;1.50;99.90;;;;;;4966729;28;20209;-69
2021/12/13 11:44:32;;;;;;;77.70;28.67;;;1.50;99.90;;;;;;4968266;28;20208;-67
2021/12/13 11:47:41;;;;;;;70.53;27.87;;;1.50;99.90;;;;;;4971619;28;20197;-66
2021/12/13 11:50:45;;;;;;;74.50;26.67;;;1.40;99.90;;;;;;4972693;28;20236;-66
2021/12/13 11:53:48;;;;;;;75.33;26.27;;;1.40;99.90;;;;;;4969597;28;20727;-66
2021/12/13 11:56:35;;;;;;;84.33;28.27;;;1.40;99.90;;;;;;4970299;28;20334;-66
2021/12/13 11:59:18;;;;;;;73.13;28.50;;;1.50;99.90;;;;;;4969389;28;20331;-67
2021/12/13 12:02:01;;;;;;;78.40;25.80;;;1.50;99.90;;;;;;4969308;28;20288;-69
2021/12/13 12:05:17;;;;;;;79.83;27.83;;;1.40;99.90;;;;;;4969466;28;20244;-65
2021/12/13 12:08:23;;;;;;;78.17;26.73;;;1.30;99.90;;;;;;4929529;29;20249;-66
2021/12/13 12:11:24;;;;;;;79.03;27.43;;;1.20;99.90;;;;;;4962390;28;20222;-68
2021/12/13 12:14:03;;;;;;;77.57;28.47;;;1.20;99.90;;;;;;4971306;28;20197;-68
2021/12/13 12:16:32;;;;;;;72.00;27.33;;;1.20;99.90;;;;;;4971443;28;20281;-67
2021/12/13 12:18:59;;;;;;;84.67;27.80;;;1.20;99.90;;;;;;4971599;28;20296;-67
2021/12/13 12:21:37;;;;;;;84.40;30.33;;;1.30;99.90;;;;;;4970994;28;20224;-68
2021/12/13 12:24:07;;;;;;;79.13;29.73;;;1.20;99.90;;;;;;4968040;28;20251;-70
2021/12/13 12:26:35;;;;;;;75.23;30.43;;;1.30;99.90;;;;;;4970952;28;20215;-69
2021/12/13 12:29:09;;;;;;;86.37;29.87;;;1.30;99.90;;;;;;4969227;28;20592;-68
2021/12/13 12:31:38;;;;;;;74.30;26.30;;;1.40;99.90;;;;;;4962609;28;20757;-67
2021/12/13 12:34:07;;;;;;;78.47;27.23;;;1.40;99.90;;;;;;4971001;28;20276;-67
2021/12/13 12:36:43;;;;;;;78.63;28.53;;;1.40;99.90;;;;;;4968570;28;20723;-67
2021/12/13 12:39:48;;;;;;;80.80;28.53;;;1.40;99.90;;;;;;4971087;28;20201;-66
2021/12/13 12:42:26;;;;;;;73.47;26.80;;;1.30;99.90;;;;;;4959564;28;20216;-67
2021/12/13 12:45:07;;;;;;;80.83;28.83;;;1.40;99.90;;;;;;4966847;28;20296;-67
2021/12/13 12:48:09;;;;;;;74.83;28.90;;;1.40;99.90;;;;;;4971215;28;20291;-67
2021/12/13 12:50:40;;;;;;;77.77;29.77;;;1.40;99.90;;;;;;4968687;28;20212;-66
2021/12/13 12:53:11;;;;;;;78.40;29.90;;;1.30;99.90;;;;;;4971823;28;20228;-67
2021/12/13 12:55:41;;;;;;;86.50;30.87;;;1.50;99.90;;;;;;4972071;28;20251;-67
2021/12/13 12:58:11;;;;;;;85.10;29.13;;;1.50;99.90;;;;;;4973556;28;20304;-67
2021/12/13 13:00:41;;;;;;;77.67;29.47;;;1.50;99.90;;;;;;4971682;28;20247;-67
2021/12/13 13:03:15;;;;;;;83.37;29.50;;;1.40;99.90;;;;;;4974511;28;20244;-66
2021/12/13 13:05:43;;;;;;;85.00;27.30;;;1.40;99.90;;;;;;4970454;28;20268;-66
2021/12/13 13:08:10;;;;;;;79.40;29.63;;;1.20;99.90;;;;;;4971608;28;20209;-67
2021/12/13 13:13:18;;;;;;;81.13;29.07;;;1.20;99.90;;;;;;4968727;28;20565;-67
2021/12/13 13:15:49;;;;;;;91.57;32.00;;;1.20;99.90;;;;;;4971950;28;20208;-68
2021/12/13 13:18:20;;;;;;;80.70;27.83;;;1.30;99.90;;;;;;4971536;28;20204;-67